Tb_john — LJUO — position and weather

sailwx.info

Track history (hours):
 
Tides and Currents Weather Stations Pressure Air Temp Water Temp Dewpoint Dewpoint Depression Visibility Wind Speed Wind Dir Waves Ship Positions

Tb_john

Last reported at 2016-Aug-29 19:34 UTC. Time now 2016-Aug-29 19:53 UTC.
Position N 59°20' E 010°31'.

Length 33 m; draft 5 m.

Type: Tug. MMSI: 259599000.

Date/timePositionNaut miles runAvg speedWind from/ knotsBaromVisibWave heightAir tempDewpointWater temp
2016-Aug-29 19:34N 59°20' E 010°31'0 0.0
2016-Aug-29 18:34N 59°20' E 010°31'0 0.0
2016-Aug-29 17:34N 59°20' E 010°31'0 0.0
2016-Aug-29 16:34N 59°20' E 010°31'0 0.0
2016-Aug-29 15:34N 59°20' E 010°31'0 0.0
2016-Aug-29 14:34N 59°20' E 010°31'0 0.1
2016-Aug-29 13:34N 59°20' E 010°31'0 0.1
2016-Aug-29 12:34N 59°20' E 010°31'0 0.1
2016-Aug-29 11:34N 59°20' E 010°31'2 2.3
2016-Aug-29 10:34N 59°18' E 010°34'8 8.2
2016-Aug-29 09:34N 59°10' E 010°37'5 5.3
2016-Aug-29 08:34N 59°15' E 010°35'5 5.0
2016-Aug-29 07:34N 59°20' E 010°31'0 0.0
2016-Aug-29 06:34N 59°20' E 010°31'0 0.0
2016-Aug-29 05:34N 59°20' E 010°31'1 0.9
2016-Aug-29 04:34N 59°20' E 010°31'1 0.9
2016-Aug-29 03:34N 59°20' E 010°31'0 0.0
2016-Aug-29 02:34N 59°20' E 010°31'0 0.0
2016-Aug-29 01:33N 59°20' E 010°31'0 0.1
2016-Aug-29 00:34N 59°20' E 010°31'0 0.1
2016-Aug-28 23:34N 59°20' E 010°31'0 0.0
2016-Aug-28 22:34N 59°20' E 010°31'0 0.0
2016-Aug-28 21:34N 59°20' E 010°31'0 0.0
2016-Aug-28 20:33N 59°20' E 010°31'6 6.1
2016-Aug-28 19:33N 59°14' E 010°36'2 1.6
2016-Aug-28 18:34N 59°16' E 010°36'5 4.7
2016-Aug-28 17:34N 59°20' E 010°31'0 0.1
2016-Aug-28 16:33N 59°20' E 010°31'0 0.0
2016-Aug-28 15:34N 59°20' E 010°31'0 0.0
2016-Aug-28 14:34N 59°20' E 010°31'0 0.0
2016-Aug-28 13:33N 59°20' E 010°31'0 0.0
2016-Aug-28 12:34N 59°20' E 010°31'0 0.0
2016-Aug-28 11:34N 59°20' E 010°31'0 0.0
2016-Aug-28 10:34N 59°20' E 010°31'0 0.1
2016-Aug-28 09:34N 59°20' E 010°31'0 0.1
2016-Aug-28 08:34N 59°20' E 010°31'0 0.0
2016-Aug-28 07:34N 59°20' E 010°31'0 0.0
2016-Aug-28 06:34N 59°20' E 010°31'0 0.0
2016-Aug-28 05:34N 59°20' E 010°31'0 0.0
2016-Aug-28 04:34N 59°20' E 010°31'0 0.0
2016-Aug-28 03:34N 59°20' E 010°31'0 0.0
2016-Aug-28 02:34N 59°20' E 010°31'0 0.4
2016-Aug-28 01:34N 59°20' E 010°31'0 0.4
2016-Aug-28 00:34N 59°20' E 010°31'0 0.0
2016-Aug-27 23:34N 59°20' E 010°31'0 0.0
2016-Aug-27 22:33N 59°20' E 010°31'0 0.0
2016-Aug-27 21:34N 59°20' E 010°31'0 0.0
2016-Aug-27 20:34N 59°20' E 010°31'0 0.0
2016-Aug-27 19:34N 59°20' E 010°31'0 0.0
2016-Aug-27 18:34N 59°20' E 010°31'0 0.0
2016-Aug-27 17:34N 59°20' E 010°31'0 0.0
2016-Aug-27 16:34N 59°20' E 010°31'0 0.0
2016-Aug-27 15:34N 59°20' E 010°31'0 0.0
2016-Aug-27 14:34N 59°20' E 010°31'0 0.0
2016-Aug-27 13:34N 59°20' E 010°31'1 0.6
2016-Aug-27 12:34N 59°20' E 010°32'1 0.6
2016-Aug-27 11:34N 59°20' E 010°32'1 0.7
2016-Aug-27 10:34N 59°20' E 010°31'1 0.7
2016-Aug-27 09:34N 59°20' E 010°31'0 0.1
2016-Aug-27 08:34N 59°20' E 010°31'1 0.6
2016-Aug-27 07:34N 59°20' E 010°31'0 0.0
2016-Aug-27 06:34N 59°20' E 010°31'0 0.0
2016-Aug-27 04:33N 59°20' E 010°31'0 0.0
2016-Aug-27 03:34N 59°20' E 010°31'0 0.0
2016-Aug-27 02:34N 59°20' E 010°31'0 0.0
2016-Aug-27 01:34N 59°20' E 010°31'0 0.0
2016-Aug-27 00:34N 59°20' E 010°31'0 0.0
2016-Aug-26 23:34N 59°20' E 010°31'0 0.0
2016-Aug-26 22:34N 59°20' E 010°31'0 0.0
2016-Aug-26 21:34N 59°20' E 010°31'0 0.0
2016-Aug-26 20:34N 59°20' E 010°31'0 0.0
2016-Aug-26 19:34N 59°20' E 010°31'0 0.0
2016-Aug-26 18:34N 59°20' E 010°31'0 0.0
2016-Aug-26 17:34N 59°20' E 010°31'0 0.0
2016-Aug-26 16:34N 59°20' E 010°31'0 0.0
2016-Aug-26 15:33N 59°20' E 010°31'0 0.0
2016-Aug-26 14:34N 59°20' E 010°31'0 0.0
2016-Aug-26 13:34N 59°20' E 010°31'0 0.1
2016-Aug-26 12:34N 59°20' E 010°31'1 0.9
2016-Aug-26 11:34N 59°20' E 010°31'1 1.0
2016-Aug-26 10:34N 59°20' E 010°31'0 0.0
2016-Aug-26 09:34N 59°20' E 010°31'0 0.0
2016-Aug-26 08:34N 59°20' E 010°31'0 0.0
2016-Aug-26 07:34N 59°20' E 010°31'0 0.0
2016-Aug-26 06:34N 59°20' E 010°31'0 0.0
2016-Aug-26 04:34N 59°20' E 010°31'0 0.0
2016-Aug-26 03:34N 59°20' E 010°31'0 0.0
2016-Aug-26 02:34N 59°20' E 010°31'0 0.0
2016-Aug-26 01:34N 59°20' E 010°31'0 0.0
2016-Aug-26 00:34N 59°20' E 010°31'0 0.0
2016-Aug-25 23:34N 59°20' E 010°31'0 0.0
2016-Aug-25 22:34N 59°20' E 010°31'0 0.0
2016-Aug-25 21:34N 59°20' E 010°31'0 0.0
2016-Aug-25 20:34N 59°20' E 010°31'0 0.0
2016-Aug-25 19:34N 59°20' E 010°31'0 0.0
2016-Aug-25 18:34N 59°20' E 010°31'0 0.0
2016-Aug-25 17:34N 59°20' E 010°31'0 0.0
2016-Aug-25 16:33N 59°20' E 010°31'0 0.0
2016-Aug-25 15:33N 59°20' E 010°31'0 0.0
2016-Aug-25 14:34N 59°20' E 010°31'0 0.0
2016-Aug-25 13:34N 59°20' E 010°31'0 0.0
2016-Aug-25 12:34N 59°20' E 010°31'0 0.0
2016-Aug-25 11:34N 59°20' E 010°31'0 0.0
2016-Aug-25 10:33N 59°20' E 010°31'0 0.0
2016-Aug-25 09:34N 59°20' E 010°31'0 0.0
2016-Aug-25 08:34N 59°20' E 010°31'0 0.0
2016-Aug-25 07:34N 59°20' E 010°31'0 0.0
2016-Aug-25 06:34N 59°20' E 010°31'0 0.0
2016-Aug-25 04:34N 59°20' E 010°31'0 0.0
2016-Aug-25 03:34N 59°20' E 010°31'0 0.0
2016-Aug-25 02:34N 59°20' E 010°31'0 0.0
2016-Aug-25 01:34N 59°20' E 010°31'0 0.0
2016-Aug-25 00:34N 59°20' E 010°31'0 0.0
2016-Aug-24 23:34N 59°20' E 010°31'0 0.0
2016-Aug-24 22:34N 59°20' E 010°31'0 0.0
2016-Aug-24 21:34N 59°20' E 010°31'0 0.1
2016-Aug-24 20:33N 59°20' E 010°31'0 0.0
2016-Aug-24 19:34N 59°20' E 010°31'0 0.0
2016-Aug-24 18:34N 59°20' E 010°31'0 0.1
2016-Aug-24 17:34N 59°20' E 010°31'0 0.1
2016-Aug-24 16:34N 59°20' E 010°31'0 0.0
2016-Aug-24 15:34N 59°20' E 010°31'0 0.0
2016-Aug-24 14:34N 59°20' E 010°31'0 0.0
2016-Aug-24 13:34N 59°20' E 010°31'0 0.0
2016-Aug-24 12:33N 59°20' E 010°31'0 0.0
2016-Aug-24 11:33N 59°20' E 010°31'0 0.0
2016-Aug-24 10:34N 59°20' E 010°31'0 0.0
2016-Aug-24 09:34N 59°20' E 010°31'0 0.0
2016-Aug-24 08:34N 59°20' E 010°31'0 0.0
2016-Aug-24 07:34N 59°20' E 010°31'5 4.7
2016-Aug-24 06:34N 59°15' E 010°35'5 2.4
2016-Aug-24 04:34N 59°20' E 010°31'0 0.1
2016-Aug-24 03:34N 59°20' E 010°31'0 0.0
2016-Aug-24 02:34N 59°20' E 010°31'0 0.0
2016-Aug-24 01:34N 59°20' E 010°31'0 0.0
2016-Aug-24 00:34N 59°20' E 010°31'0 0.0
2016-Aug-23 23:33N 59°20' E 010°31'0 0.0
2016-Aug-23 22:34N 59°20' E 010°31'0 0.0
2016-Aug-23 21:34N 59°20' E 010°31'0 0.0
2016-Aug-23 20:34N 59°20' E 010°31'0 0.0
2016-Aug-23 19:34N 59°20' E 010°31'0 0.0
2016-Aug-23 18:34N 59°20' E 010°31'0 0.0
2016-Aug-23 17:34N 59°20' E 010°31'0 0.0
2016-Aug-23 16:33N 59°20' E 010°31'0 0.0
2016-Aug-23 15:34N 59°20' E 010°31'0 0.0
2016-Aug-23 14:34N 59°20' E 010°31'0 0.2
2016-Aug-23 13:34N 59°20' E 010°31'0 0.2
2016-Aug-23 12:34N 59°20' E 010°31'0 0.0
2016-Aug-23 11:34N 59°20' E 010°31'0 0.0
2016-Aug-23 10:34N 59°20' E 010°31'0 0.0
2016-Aug-23 09:34N 59°20' E 010°31'0 0.0
2016-Aug-23 08:34N 59°20' E 010°31'0 0.0
2016-Aug-23 07:34N 59°20' E 010°31'0 0.0
2016-Aug-23 06:34N 59°20' E 010°31'0 0.0
2016-Aug-23 05:34N 59°20' E 010°31'0 0.0
2016-Aug-23 04:34N 59°20' E 010°31'0 0.0
2016-Aug-23 03:34N 59°20' E 010°31'0 0.1
2016-Aug-23 02:34N 59°20' E 010°31'1 0.6
2016-Aug-23 01:33N 59°20' E 010°31'1 0.7
2016-Aug-23 00:34N 59°20' E 010°31'0 0.0
2016-Aug-22 23:33N 59°20' E 010°31'0 0.0
2016-Aug-22 22:34N 59°20' E 010°31'0 0.0
2016-Aug-22 21:34N 59°20' E 010°31'0 0.0
2016-Aug-22 20:33N 59°20' E 010°31'0 0.0
2016-Aug-22 19:34N 59°20' E 010°31'0 0.0
2016-Aug-22 18:34N 59°20' E 010°31'0 0.0
2016-Aug-22 17:34N 59°20' E 010°31'0 0.0
2016-Aug-22 16:34N 59°20' E 010°31'0 0.4
2016-Aug-22 15:34N 59°20' E 010°31'0 0.4
2016-Aug-22 14:34N 59°20' E 010°31'0 0.0
2016-Aug-22 13:34N 59°20' E 010°31'0 0.0
2016-Aug-22 12:33N 59°20' E 010°31'0 0.0
2016-Aug-22 11:34N 59°20' E 010°31'0 0.0
2016-Aug-22 10:34N 59°20' E 010°31'0 0.0
2016-Aug-22 09:34N 59°20' E 010°31'0 0.0
2016-Aug-22 08:34N 59°20' E 010°31'0 0.0
2016-Aug-22 07:34N 59°20' E 010°31'0 0.0
2016-Aug-22 06:34N 59°20' E 010°31'0 0.0
2016-Aug-22 05:34N 59°20' E 010°31'0 0.0
2016-Aug-22 04:34N 59°20' E 010°31'0 0.0
2016-Aug-22 03:34N 59°20' E 010°31'0 0.0
2016-Aug-22 02:34N 59°20' E 010°31'0 0.0
2016-Aug-22 01:34N 59°20' E 010°31'0 0.3
2016-Aug-22 00:34N 59°20' E 010°31'7 6.6
2016-Aug-21 23:34N 59°14' E 010°36'1 1.3
2016-Aug-21 22:34N 59°15' E 010°35'5 5.1
2016-Aug-21 21:34N 59°20' E 010°31'0 0.0
2016-Aug-21 20:33N 59°20' E 010°31'0 0.0
2016-Aug-21 19:34N 59°20' E 010°31'0 0.0
2016-Aug-21 18:34N 59°20' E 010°31'0 0.0
2016-Aug-21 17:34N 59°20' E 010°31'0 0.0
2016-Aug-21 16:33N 59°20' E 010°31'0 0.0
2016-Aug-21 15:34N 59°20' E 010°31'0 0.0
2016-Aug-21 14:34N 59°20' E 010°31'0 0.0
2016-Aug-21 13:34N 59°20' E 010°31'0 0.0
2016-Aug-21 12:34N 59°20' E 010°31'0 0.0
2016-Aug-21 11:34N 59°20' E 010°31'0 0.0
2016-Aug-21 10:34N 59°20' E 010°31'0 0.0
2016-Aug-21 09:34N 59°20' E 010°31'0 0.0
2016-Aug-21 08:34N 59°20' E 010°31'0 0.3
2016-Aug-21 07:34N 59°20' E 010°31'0 0.3
2016-Aug-21 06:34N 59°20' E 010°31'0 0.0
2016-Aug-21 05:34N 59°20' E 010°31'0 0.0
2016-Aug-21 04:33N 59°20' E 010°31'0 0.0
2016-Aug-21 03:34N 59°20' E 010°31'0 0.0
2016-Aug-21 02:34N 59°20' E 010°31'0 0.0
2016-Aug-21 01:34N 59°20' E 010°31'0 0.0
2016-Aug-21 00:33N 59°20' E 010°31'0 0.0
2016-Aug-20 23:34N 59°20' E 010°31'0 0.0
2016-Aug-20 22:34N 59°20' E 010°31'0 0.0
2016-Aug-20 21:34N 59°20' E 010°31'0 0.0
2016-Aug-20 20:34N 59°20' E 010°31'0 0.0
2016-Aug-20 19:34N 59°20' E 010°31'0 0.0
2016-Aug-20 18:34N 59°20' E 010°31'0 0.0
2016-Aug-20 17:34N 59°20' E 010°31'0 0.0
2016-Aug-20 16:34N 59°20' E 010°31'0 0.0
2016-Aug-20 15:33N 59°20' E 010°31'0 0.0
2016-Aug-20 14:34N 59°20' E 010°31'0 0.0
2016-Aug-20 13:34N 59°20' E 010°31'0 0.0
2016-Aug-20 12:34N 59°20' E 010°31'0 0.0
2016-Aug-20 11:34N 59°20' E 010°31'0 0.0
2016-Aug-20 10:34N 59°20' E 010°31'0 0.0
2016-Aug-20 09:34N 59°20' E 010°31'0 0.0
2016-Aug-20 08:34N 59°20' E 010°31'0 0.0
2016-Aug-20 07:34N 59°20' E 010°31'0 0.2
2016-Aug-20 06:33N 59°20' E 010°31'0 0.2
2016-Aug-20 05:34N 59°20' E 010°31'0 0.0
2016-Aug-20 04:34N 59°20' E 010°31'0 0.0
2016-Aug-20 03:33N 59°20' E 010°31'0 0.0
2016-Aug-20 02:34N 59°20' E 010°31'0 0.0
2016-Aug-20 01:34N 59°20' E 010°31'0 0.0
2016-Aug-20 00:34N 59°20' E 010°31'0 0.0
2016-Aug-19 23:33N 59°20' E 010°31'0 0.0
2016-Aug-19 22:34N 59°20' E 010°31'0 0.0
2016-Aug-19 21:34N 59°20' E 010°31'0 0.0
2016-Aug-19 20:34N 59°20' E 010°31'  
Track history (hours):
 
Tides and Currents Weather Stations Pressure Air Temp Water Temp Dewpoint Dewpoint Depression Visibility Wind Speed Wind Dir Waves Ship Positions

Tb_john

Last reported at 2016-Aug-29 19:34 UTC. Time now 2016-Aug-29 19:53 UTC.
Position N 59°20' E 010°31'.

Length 33 m; draft 5 m.

Type: Tug. MMSI: 259599000.

Date/timePositionNaut miles runAvg speedWind from/ knotsBaromVisibWave heightAir tempDewpointWater temp
2016-Aug-29 19:34N 59°20' E 010°31'0 0.0
2016-Aug-29 18:34N 59°20' E 010°31'0 0.0
2016-Aug-29 17:34N 59°20' E 010°31'0 0.0
2016-Aug-29 16:34N 59°20' E 010°31'0 0.0
2016-Aug-29 15:34N 59°20' E 010°31'0 0.0
2016-Aug-29 14:34N 59°20' E 010°31'0 0.1
2016-Aug-29 13:34N 59°20' E 010°31'0 0.1
2016-Aug-29 12:34N 59°20' E 010°31'0 0.1
2016-Aug-29 11:34N 59°20' E 010°31'2 2.3
2016-Aug-29 10:34N 59°18' E 010°34'8 8.2
2016-Aug-29 09:34N 59°10' E 010°37'5 5.3
2016-Aug-29 08:34N 59°15' E 010°35'5 5.0
2016-Aug-29 07:34N 59°20' E 010°31'0 0.0
2016-Aug-29 06:34N 59°20' E 010°31'0 0.0
2016-Aug-29 05:34N 59°20' E 010°31'1 0.9
2016-Aug-29 04:34N 59°20' E 010°31'1 0.9
2016-Aug-29 03:34N 59°20' E 010°31'0 0.0
2016-Aug-29 02:34N 59°20' E 010°31'0 0.0
2016-Aug-29 01:33N 59°20' E 010°31'0 0.1
2016-Aug-29 00:34N 59°20' E 010°31'0 0.1
2016-Aug-28 23:34N 59°20' E 010°31'0 0.0
2016-Aug-28 22:34N 59°20' E 010°31'0 0.0
2016-Aug-28 21:34N 59°20' E 010°31'0 0.0
2016-Aug-28 20:33N 59°20' E 010°31'6 6.1
2016-Aug-28 19:33N 59°14' E 010°36'2 1.6
2016-Aug-28 18:34N 59°16' E 010°36'5 4.7
2016-Aug-28 17:34N 59°20' E 010°31'0 0.1
2016-Aug-28 16:33N 59°20' E 010°31'0 0.0
2016-Aug-28 15:34N 59°20' E 010°31'0 0.0
2016-Aug-28 14:34N 59°20' E 010°31'0 0.0
2016-Aug-28 13:33N 59°20' E 010°31'0 0.0
2016-Aug-28 12:34N 59°20' E 010°31'0 0.0
2016-Aug-28 11:34N 59°20' E 010°31'0 0.0
2016-Aug-28 10:34N 59°20' E 010°31'0 0.1
2016-Aug-28 09:34N 59°20' E 010°31'0 0.1
2016-Aug-28 08:34N 59°20' E 010°31'0 0.0
2016-Aug-28 07:34N 59°20' E 010°31'0 0.0
2016-Aug-28 06:34N 59°20' E 010°31'0 0.0
2016-Aug-28 05:34N 59°20' E 010°31'0 0.0
2016-Aug-28 04:34N 59°20' E 010°31'0 0.0
2016-Aug-28 03:34N 59°20' E 010°31'0 0.0
2016-Aug-28 02:34N 59°20' E 010°31'0 0.4
2016-Aug-28 01:34N 59°20' E 010°31'0 0.4
2016-Aug-28 00:34N 59°20' E 010°31'0 0.0
2016-Aug-27 23:34N 59°20' E 010°31'0 0.0
2016-Aug-27 22:33N 59°20' E 010°31'0 0.0
2016-Aug-27 21:34N 59°20' E 010°31'0 0.0
2016-Aug-27 20:34N 59°20' E 010°31'0 0.0
2016-Aug-27 19:34N 59°20' E 010°31'0 0.0
2016-Aug-27 18:34N 59°20' E 010°31'0 0.0
2016-Aug-27 17:34N 59°20' E 010°31'0 0.0
2016-Aug-27 16:34N 59°20' E 010°31'0 0.0
2016-Aug-27 15:34N 59°20' E 010°31'0 0.0
2016-Aug-27 14:34N 59°20' E 010°31'0 0.0
2016-Aug-27 13:34N 59°20' E 010°31'1 0.6
2016-Aug-27 12:34N 59°20' E 010°32'1 0.6
2016-Aug-27 11:34N 59°20' E 010°32'1 0.7
2016-Aug-27 10:34N 59°20' E 010°31'1 0.7
2016-Aug-27 09:34N 59°20' E 010°31'0 0.1
2016-Aug-27 08:34N 59°20' E 010°31'1 0.6
2016-Aug-27 07:34N 59°20' E 010°31'0 0.0
2016-Aug-27 06:34N 59°20' E 010°31'0 0.0
2016-Aug-27 04:33N 59°20' E 010°31'0 0.0
2016-Aug-27 03:34N 59°20' E 010°31'0 0.0
2016-Aug-27 02:34N 59°20' E 010°31'0 0.0
2016-Aug-27 01:34N 59°20' E 010°31'0 0.0
2016-Aug-27 00:34N 59°20' E 010°31'0 0.0
2016-Aug-26 23:34N 59°20' E 010°31'0 0.0
2016-Aug-26 22:34N 59°20' E 010°31'0 0.0
2016-Aug-26 21:34N 59°20' E 010°31'0 0.0
2016-Aug-26 20:34N 59°20' E 010°31'0 0.0
2016-Aug-26 19:34N 59°20' E 010°31'0 0.0
2016-Aug-26 18:34N 59°20' E 010°31'0 0.0
2016-Aug-26 17:34N 59°20' E 010°31'0 0.0
2016-Aug-26 16:34N 59°20' E 010°31'0 0.0
2016-Aug-26 15:33N 59°20' E 010°31'0 0.0
2016-Aug-26 14:34N 59°20' E 010°31'0 0.0
2016-Aug-26 13:34N 59°20' E 010°31'0 0.1
2016-Aug-26 12:34N 59°20' E 010°31'1 0.9
2016-Aug-26 11:34N 59°20' E 010°31'1 1.0
2016-Aug-26 10:34N 59°20' E 010°31'0 0.0
2016-Aug-26 09:34N 59°20' E 010°31'0 0.0
2016-Aug-26 08:34N 59°20' E 010°31'0 0.0
2016-Aug-26 07:34N 59°20' E 010°31'0 0.0
2016-Aug-26 06:34N 59°20' E 010°31'0 0.0
2016-Aug-26 04:34N 59°20' E 010°31'0 0.0
2016-Aug-26 03:34N 59°20' E 010°31'0 0.0
2016-Aug-26 02:34N 59°20' E 010°31'0 0.0
2016-Aug-26 01:34N 59°20' E 010°31'0 0.0
2016-Aug-26 00:34N 59°20' E 010°31'0 0.0
2016-Aug-25 23:34N 59°20' E 010°31'0 0.0
2016-Aug-25 22:34N 59°20' E 010°31'0 0.0
2016-Aug-25 21:34N 59°20' E 010°31'0 0.0
2016-Aug-25 20:34N 59°20' E 010°31'0 0.0
2016-Aug-25 19:34N 59°20' E 010°31'0 0.0
2016-Aug-25 18:34N 59°20' E 010°31'0 0.0
2016-Aug-25 17:34N 59°20' E 010°31'0 0.0
2016-Aug-25 16:33N 59°20' E 010°31'0 0.0
2016-Aug-25 15:33N 59°20' E 010°31'0 0.0
2016-Aug-25 14:34N 59°20' E 010°31'0 0.0
2016-Aug-25 13:34N 59°20' E 010°31'0 0.0
2016-Aug-25 12:34N 59°20' E 010°31'0 0.0
2016-Aug-25 11:34N 59°20' E 010°31'0 0.0
2016-Aug-25 10:33N 59°20' E 010°31'0 0.0
2016-Aug-25 09:34N 59°20' E 010°31'0 0.0
2016-Aug-25 08:34N 59°20' E 010°31'0 0.0
2016-Aug-25 07:34N 59°20' E 010°31'0 0.0
2016-Aug-25 06:34N 59°20' E 010°31'0 0.0
2016-Aug-25 04:34N 59°20' E 010°31'0 0.0
2016-Aug-25 03:34N 59°20' E 010°31'0 0.0
2016-Aug-25 02:34N 59°20' E 010°31'0 0.0
2016-Aug-25 01:34N 59°20' E 010°31'0 0.0
2016-Aug-25 00:34N 59°20' E 010°31'0 0.0
2016-Aug-24 23:34N 59°20' E 010°31'0 0.0
2016-Aug-24 22:34N 59°20' E 010°31'0 0.0
2016-Aug-24 21:34N 59°20' E 010°31'0 0.1
2016-Aug-24 20:33N 59°20' E 010°31'0 0.0
2016-Aug-24 19:34N 59°20' E 010°31'0 0.0
2016-Aug-24 18:34N 59°20' E 010°31'0 0.1
2016-Aug-24 17:34N 59°20' E 010°31'0 0.1
2016-Aug-24 16:34N 59°20' E 010°31'0 0.0
2016-Aug-24 15:34N 59°20' E 010°31'0 0.0
2016-Aug-24 14:34N 59°20' E 010°31'0 0.0
2016-Aug-24 13:34N 59°20' E 010°31'0 0.0
2016-Aug-24 12:33N 59°20' E 010°31'0 0.0
2016-Aug-24 11:33N 59°20' E 010°31'0 0.0
2016-Aug-24 10:34N 59°20' E 010°31'0 0.0
2016-Aug-24 09:34N 59°20' E 010°31'0 0.0
2016-Aug-24 08:34N 59°20' E 010°31'0 0.0
2016-Aug-24 07:34N 59°20' E 010°31'5 4.7
2016-Aug-24 06:34N 59°15' E 010°35'5 2.4
2016-Aug-24 04:34N 59°20' E 010°31'0 0.1
2016-Aug-24 03:34N 59°20' E 010°31'0 0.0
2016-Aug-24 02:34N 59°20' E 010°31'0 0.0
2016-Aug-24 01:34N 59°20' E 010°31'0 0.0
2016-Aug-24 00:34N 59°20' E 010°31'0 0.0
2016-Aug-23 23:33N 59°20' E 010°31'0 0.0
2016-Aug-23 22:34N 59°20' E 010°31'0 0.0
2016-Aug-23 21:34N 59°20' E 010°31'0 0.0
2016-Aug-23 20:34N 59°20' E 010°31'0 0.0
2016-Aug-23 19:34N 59°20' E 010°31'0 0.0
2016-Aug-23 18:34N 59°20' E 010°31'0 0.0
2016-Aug-23 17:34N 59°20' E 010°31'0 0.0
2016-Aug-23 16:33N 59°20' E 010°31'0 0.0
2016-Aug-23 15:34N 59°20' E 010°31'0 0.0
2016-Aug-23 14:34N 59°20' E 010°31'0 0.2
2016-Aug-23 13:34N 59°20' E 010°31'0 0.2
2016-Aug-23 12:34N 59°20' E 010°31'0 0.0
2016-Aug-23 11:34N 59°20' E 010°31'0 0.0
2016-Aug-23 10:34N 59°20' E 010°31'0 0.0
2016-Aug-23 09:34N 59°20' E 010°31'0 0.0
2016-Aug-23 08:34N 59°20' E 010°31'0 0.0
2016-Aug-23 07:34N 59°20' E 010°31'0 0.0
2016-Aug-23 06:34N 59°20' E 010°31'0 0.0
2016-Aug-23 05:34N 59°20' E 010°31'0 0.0
2016-Aug-23 04:34N 59°20' E 010°31'0 0.0
2016-Aug-23 03:34N 59°20' E 010°31'0 0.1
2016-Aug-23 02:34N 59°20' E 010°31'1 0.6
2016-Aug-23 01:33N 59°20' E 010°31'1 0.7
2016-Aug-23 00:34N 59°20' E 010°31'0 0.0
2016-Aug-22 23:33N 59°20' E 010°31'0 0.0
2016-Aug-22 22:34N 59°20' E 010°31'0 0.0
2016-Aug-22 21:34N 59°20' E 010°31'0 0.0
2016-Aug-22 20:33N 59°20' E 010°31'0 0.0
2016-Aug-22 19:34N 59°20' E 010°31'0 0.0
2016-Aug-22 18:34N 59°20' E 010°31'0 0.0
2016-Aug-22 17:34N 59°20' E 010°31'0 0.0
2016-Aug-22 16:34N 59°20' E 010°31'0 0.4
2016-Aug-22 15:34N 59°20' E 010°31'0 0.4
2016-Aug-22 14:34N 59°20' E 010°31'0 0.0
2016-Aug-22 13:34N 59°20' E 010°31'0 0.0
2016-Aug-22 12:33N 59°20' E 010°31'0 0.0
2016-Aug-22 11:34N 59°20' E 010°31'0 0.0
2016-Aug-22 10:34N 59°20' E 010°31'0 0.0
2016-Aug-22 09:34N 59°20' E 010°31'0 0.0
2016-Aug-22 08:34N 59°20' E 010°31'0 0.0
2016-Aug-22 07:34N 59°20' E 010°31'0 0.0
2016-Aug-22 06:34N 59°20' E 010°31'0 0.0
2016-Aug-22 05:34N 59°20' E 010°31'0 0.0
2016-Aug-22 04:34N 59°20' E 010°31'0 0.0
2016-Aug-22 03:34N 59°20' E 010°31'0 0.0
2016-Aug-22 02:34N 59°20' E 010°31'0 0.0
2016-Aug-22 01:34N 59°20' E 010°31'0 0.3
2016-Aug-22 00:34N 59°20' E 010°31'7 6.6
2016-Aug-21 23:34N 59°14' E 010°36'1 1.3
2016-Aug-21 22:34N 59°15' E 010°35'5 5.1
2016-Aug-21 21:34N 59°20' E 010°31'0 0.0
2016-Aug-21 20:33N 59°20' E 010°31'0 0.0
2016-Aug-21 19:34N 59°20' E 010°31'0 0.0
2016-Aug-21 18:34N 59°20' E 010°31'0 0.0
2016-Aug-21 17:34N 59°20' E 010°31'0 0.0
2016-Aug-21 16:33N 59°20' E 010°31'0 0.0
2016-Aug-21 15:34N 59°20' E 010°31'0 0.0
2016-Aug-21 14:34N 59°20' E 010°31'0 0.0
2016-Aug-21 13:34N 59°20' E 010°31'0 0.0
2016-Aug-21 12:34N 59°20' E 010°31'0 0.0
2016-Aug-21 11:34N 59°20' E 010°31'0 0.0
2016-Aug-21 10:34N 59°20' E 010°31'0 0.0
2016-Aug-21 09:34N 59°20' E 010°31'0 0.0
2016-Aug-21 08:34N 59°20' E 010°31'0 0.3
2016-Aug-21 07:34N 59°20' E 010°31'0 0.3
2016-Aug-21 06:34N 59°20' E 010°31'0 0.0
2016-Aug-21 05:34N 59°20' E 010°31'0 0.0
2016-Aug-21 04:33N 59°20' E 010°31'0 0.0
2016-Aug-21 03:34N 59°20' E 010°31'0 0.0
2016-Aug-21 02:34N 59°20' E 010°31'0 0.0
2016-Aug-21 01:34N 59°20' E 010°31'0 0.0
2016-Aug-21 00:33N 59°20' E 010°31'0 0.0
2016-Aug-20 23:34N 59°20' E 010°31'0 0.0
2016-Aug-20 22:34N 59°20' E 010°31'0 0.0
2016-Aug-20 21:34N 59°20' E 010°31'0 0.0
2016-Aug-20 20:34N 59°20' E 010°31'0 0.0
2016-Aug-20 19:34N 59°20' E 010°31'0 0.0
2016-Aug-20 18:34N 59°20' E 010°31'0 0.0
2016-Aug-20 17:34N 59°20' E 010°31'0 0.0
2016-Aug-20 16:34N 59°20' E 010°31'0 0.0
2016-Aug-20 15:33N 59°20' E 010°31'0 0.0
2016-Aug-20 14:34N 59°20' E 010°31'0 0.0
2016-Aug-20 13:34N 59°20' E 010°31'0 0.0
2016-Aug-20 12:34N 59°20' E 010°31'0 0.0
2016-Aug-20 11:34N 59°20' E 010°31'0 0.0
2016-Aug-20 10:34N 59°20' E 010°31'0 0.0
2016-Aug-20 09:34N 59°20' E 010°31'0 0.0
2016-Aug-20 08:34N 59°20' E 010°31'0 0.0
2016-Aug-20 07:34N 59°20' E 010°31'0 0.2
2016-Aug-20 06:33N 59°20' E 010°31'0 0.2
2016-Aug-20 05:34N 59°20' E 010°31'0 0.0
2016-Aug-20 04:34N 59°20' E 010°31'0 0.0
2016-Aug-20 03:33N 59°20' E 010°31'0 0.0
2016-Aug-20 02:34N 59°20' E 010°31'0 0.0
2016-Aug-20 01:34N 59°20' E 010°31'0 0.0
2016-Aug-20 00:34N 59°20' E 010°31'0 0.0
2016-Aug-19 23:33N 59°20' E 010°31'0 0.0
2016-Aug-19 22:34N 59°20' E 010°31'0 0.0
2016-Aug-19 21:34N 59°20' E 010°31'0 0.0
2016-Aug-19 20:34N 59°20' E 010°31'  

Dump ship's entire track history